createdAt,value
2023-04-22T05:58:13.345Z,7.00
2023-04-22T06:00:41.402Z,7.00
2023-04-22T06:03:09.619Z,7.00
2023-04-22T06:05:37.847Z,7.00
2023-04-22T06:08:05.863Z,7.00
2023-04-22T06:10:33.892Z,7.00
2023-04-22T06:13:02.240Z,7.00
2023-04-22T06:15:31.576Z,7.60
2023-04-22T06:17:59.637Z,7.00
2023-04-22T06:20:27.630Z,7.00
2023-04-22T06:22:55.555Z,7.10
2023-04-22T06:25:23.542Z,7.10
2023-04-22T06:27:51.926Z,7.10
2023-04-22T06:30:20.069Z,7.10
2023-04-22T06:32:49.398Z,7.10
2023-04-22T06:35:17.444Z,7.10
2023-04-22T06:37:45.610Z,7.10
2023-04-22T07:11:15.532Z,7.10
2023-04-22T07:30:21.412Z,7.10
2023-04-22T07:32:50.800Z,7.10
2023-04-22T07:35:19.008Z,7.10
2023-04-22T07:37:46.995Z,7.10
2023-04-22T07:40:15.069Z,7.10
2023-04-22T07:42:43.082Z,7.10
2023-04-22T07:45:11.523Z,7.10
2023-04-22T07:47:39.734Z,7.10
2023-04-22T07:52:23.558Z,14.50
2023-04-22T07:54:51.762Z,15.30
2023-04-22T07:57:21.898Z,11.60
2023-04-22T07:59:49.888Z,10.20
2023-04-22T08:02:17.914Z,10.10
2023-04-22T08:04:46.016Z,8.80
2023-04-22T08:07:31.054Z,8.60
2023-04-22T08:10:02.615Z,7.80
2023-04-22T08:12:30.651Z,7.60
2023-04-22T08:14:59.044Z,7.10
2023-04-22T08:17:27.455Z,6.90
2023-04-22T08:19:55.485Z,6.60
2023-04-22T08:22:23.923Z,5.30
2023-04-22T08:24:52.071Z,4.80
2023-04-22T08:27:22.869Z,4.20
2023-04-22T08:29:50.887Z,3.70
2023-04-22T08:32:19.789Z,3.90
2023-04-22T08:34:50.417Z,3.60
2023-04-22T08:37:19.878Z,2.80
2023-04-22T08:39:47.903Z,2.10
2023-04-22T08:42:16.798Z,2.60
2023-04-22T08:45:06.029Z,2.30
2023-04-22T08:47:34.193Z,1.70
2023-04-22T08:50:04.313Z,1.50
2023-04-22T08:52:33.143Z,1.00
2023-04-22T08:55:01.143Z,1.00
2023-04-22T08:57:30.682Z,1.00
2023-04-22T08:59:58.859Z,1.00
2023-04-22T09:02:30.099Z,1.00
2023-04-22T09:04:59.212Z,1.00
2023-04-22T09:07:31.020Z,1.00
2023-04-22T09:09:59.753Z,1.60
2023-04-22T09:12:27.809Z,2.20
2023-04-22T09:14:56.395Z,1.80
2023-04-22T09:17:33.414Z,1.00
2023-04-22T09:20:03.329Z,1.00
2023-04-22T09:22:39.581Z,1.00
2023-04-22T09:25:08.990Z,1.00
2023-04-22T09:27:37.096Z,1.00
2023-04-22T09:30:10.110Z,1.00
2023-04-22T09:32:41.165Z,1.00
2023-04-22T09:35:09.765Z,1.00
2023-04-22T09:37:46.522Z,1.00
2023-04-22T09:40:19.288Z,1.00
2023-04-22T09:42:51.742Z,1.00
2023-04-22T09:45:30.809Z,1.00
2023-04-22T09:48:03.002Z,1.00
2023-04-22T09:50:31.276Z,1.00
2023-04-22T09:53:01.276Z,1.00
2023-04-22T09:55:30.884Z,1.00
2023-04-22T09:58:05.171Z,1.00
2023-04-22T10:00:33.242Z,1.00
2023-04-22T10:03:02.998Z,1.00
2023-04-22T10:05:31.423Z,1.00
2023-04-22T10:07:59.480Z,1.00
2023-04-22T10:10:28.881Z,1.30
2023-04-22T10:12:57.667Z,1.00
2023-04-22T10:15:27.147Z,1.00
2023-04-22T10:17:56.890Z,1.00
2023-04-22T10:20:29.247Z,1.00
2023-04-22T10:22:58.058Z,1.00
2023-04-22T10:25:27.580Z,1.00
2023-04-22T10:28:02.528Z,1.00
2023-04-22T10:30:32.073Z,1.00
2023-04-22T10:33:35.212Z,1.00
2023-04-22T10:36:16.286Z,1.00
2023-04-22T10:39:17.780Z,1.00
2023-04-22T10:41:53.018Z,1.00
2023-04-22T10:44:22.238Z,1.00
2023-04-22T10:46:58.095Z,1.00
2023-04-22T10:49:27.628Z,1.00
2023-04-22T10:51:59.009Z,1.00
2023-04-22T10:55:01.593Z,1.00
2023-04-22T10:57:41.650Z,1.00
2023-04-22T11:00:41.909Z,1.00
2023-04-22T11:03:16.944Z,1.00
2023-04-22T11:05:45.322Z,1.00
2023-04-22T11:08:20.457Z,1.00
2023-04-22T11:10:50.259Z,1.00
2023-04-22T11:13:20.539Z,1.00
2023-04-22T11:15:50.906Z,1.00
2023-04-22T11:18:21.378Z,1.00
2023-04-22T11:20:50.697Z,1.00
2023-04-22T11:23:21.971Z,1.00
2023-04-22T11:25:54.685Z,1.00
2023-04-22T11:28:23.402Z,1.00
2023-04-22T11:30:51.837Z,1.00
2023-04-22T11:33:20.679Z,1.00
2023-04-22T11:35:51.905Z,1.00
2023-04-22T11:38:21.241Z,1.00
2023-04-22T11:40:49.349Z,1.00
2023-04-22T11:43:18.728Z,1.00
2023-04-22T11:45:46.996Z,1.00
2023-04-22T11:48:16.663Z,1.00
2023-04-22T11:50:45.122Z,1.00
2023-04-22T11:53:18.003Z,1.00
2023-04-22T11:55:50.932Z,1.00
2023-04-22T11:58:27.158Z,1.00
2023-04-22T12:00:58.497Z,1.00
2023-04-22T12:03:28.665Z,1.00
2023-04-22T12:05:59.785Z,1.00
2023-04-22T12:08:31.988Z,1.00
2023-04-22T12:11:03.730Z,1.00
2023-04-22T12:13:34.280Z,1.00
2023-04-22T12:16:04.475Z,1.00
2023-04-22T12:18:32.914Z,1.00
2023-04-22T12:21:02.324Z,1.00
2023-04-22T12:23:30.334Z,1.00
2023-04-22T12:25:58.467Z,1.00
2023-04-22T12:28:27.862Z,1.00
2023-04-22T12:30:55.865Z,1.00
2023-04-22T12:33:23.935Z,1.00
2023-04-22T12:35:52.616Z,1.00
2023-04-22T12:38:20.900Z,1.00
2023-04-22T12:40:48.899Z,1.00
2023-04-22T12:43:16.895Z,1.00
2023-04-22T12:45:46.341Z,1.00
2023-04-22T12:48:14.839Z,1.00
2023-04-22T12:50:42.967Z,1.00
2023-04-22T12:53:11.244Z,1.00
2023-04-22T12:55:39.280Z,1.00
2023-04-22T12:58:07.267Z,1.00
2023-04-22T13:00:35.578Z,1.00
2023-04-22T13:03:05.140Z,1.00
2023-04-22T13:05:33.485Z,1.00
2023-04-22T13:08:07.092Z,1.00
2023-04-22T13:10:36.194Z,1.00
2023-04-22T13:13:17.942Z,1.00
2023-04-22T13:15:49.970Z,1.00
2023-04-22T13:18:19.614Z,1.00
2023-04-22T13:20:47.791Z,1.00
2023-04-22T13:23:17.277Z,1.00
2023-04-22T13:25:45.645Z,1.00
2023-04-22T13:28:13.607Z,1.00
2023-04-22T13:30:41.571Z,1.00
2023-04-22T13:33:09.637Z,1.00
2023-04-22T13:35:38.946Z,1.00
2023-04-22T13:38:07.285Z,1.00
2023-04-22T13:40:35.373Z,1.00
2023-04-22T13:43:03.347Z,1.00
2023-04-22T13:45:31.464Z,1.00
2023-04-22T13:47:59.498Z,1.00
2023-04-22T13:50:27.508Z,1.00
2023-04-22T13:52:56.828Z,1.00
2023-04-22T13:55:26.621Z,1.00
2023-04-22T13:57:54.711Z,1.00
2023-04-22T14:00:23.176Z,1.00
2023-04-22T14:02:51.254Z,1.00
2023-04-22T14:05:19.420Z,1.00
2023-04-22T14:07:47.391Z,1.00
2023-04-22T14:10:20.277Z,1.00
2023-04-22T14:12:48.666Z,1.10
2023-04-22T14:15:16.737Z,1.30
2023-04-22T14:17:49.213Z,1.80
2023-04-22T14:20:17.413Z,1.80
2023-04-22T14:22:45.364Z,1.00
2023-04-22T14:25:13.470Z,1.00
2023-04-22T14:27:42.793Z,1.00
2023-04-22T14:30:12.061Z,1.00
2023-04-22T14:32:40.362Z,1.00
2023-04-22T14:35:08.956Z,1.00
2023-04-22T14:37:37.790Z,1.00
2023-04-22T14:40:06.625Z,1.00
2023-04-22T14:42:34.677Z,1.00
2023-04-22T14:45:04.200Z,1.00
2023-04-22T14:47:32.297Z,1.00
2023-04-22T14:50:00.280Z,1.10
2023-04-22T14:52:28.262Z,1.00
2023-04-22T14:54:56.260Z,1.00
2023-04-22T14:57:24.239Z,1.00
2023-04-22T14:59:52.177Z,2.00
2023-04-22T15:02:21.679Z,1.50
2023-04-22T15:04:49.714Z,1.30
2023-04-22T15:07:17.753Z,1.30
2023-04-22T15:09:45.894Z,2.00
2023-04-22T15:12:13.989Z,2.70
2023-04-22T15:14:41.951Z,2.70
2023-04-22T15:17:10.034Z,2.60
2023-04-22T15:19:40.080Z,3.30
2023-04-22T15:22:08.284Z,3.70
2023-04-22T15:24:36.385Z,4.60
2023-04-22T15:27:04.554Z,4.50
2023-04-22T15:29:32.526Z,4.80
2023-04-22T15:32:02.134Z,4.80
2023-04-22T15:34:30.298Z,5.30
2023-04-22T15:36:59.602Z,5.60
2023-04-22T15:39:27.523Z,5.80
2023-04-22T15:41:56.785Z,6.10
2023-04-22T15:44:24.777Z,6.70
2023-04-22T15:46:53.267Z,7.00
2023-04-22T15:49:21.282Z,6.90
2023-04-22T15:51:49.253Z,6.90
2023-04-22T15:54:18.600Z,6.90
2023-04-22T15:56:46.541Z,7.40
2023-04-22T15:59:14.662Z,8.20
2023-04-22T16:01:44.459Z,8.10
2023-04-22T16:04:14.231Z,8.00
2023-04-22T16:06:42.416Z,7.70
2023-04-22T16:09:10.456Z,5.50
2023-04-22T16:11:39.807Z,5.10
2023-04-22T16:14:07.822Z,5.20
2023-04-22T16:16:35.816Z,5.50
2023-04-22T16:19:04.001Z,5.40
2023-04-22T16:21:32.163Z,5.30
2023-04-22T16:24:00.852Z,5.60
2023-04-22T16:26:28.905Z,5.20
2023-04-22T16:28:58.332Z,4.90
2023-04-22T16:31:26.338Z,4.80
2023-04-22T16:33:54.394Z,4.60
2023-04-22T16:36:22.691Z,4.50
2023-04-22T16:38:50.766Z,5.30
2023-04-22T16:41:18.740Z,5.20
2023-04-22T16:43:46.943Z,5.30
2023-04-22T16:46:16.246Z,6.00
2023-04-22T16:48:44.496Z,6.00
2023-04-22T16:51:12.730Z,5.70
2023-04-22T16:53:40.913Z,5.60
2023-04-22T16:56:08.893Z,5.80
2023-04-22T16:58:36.869Z,5.90
2023-04-22T17:01:04.888Z,5.80
2023-04-22T17:03:34.348Z,5.50
2023-04-22T17:06:02.545Z,5.90
2023-04-22T17:08:30.627Z,6.40
2023-04-22T17:10:58.552Z,6.60
2023-04-22T17:13:26.533Z,6.50
2023-04-22T17:15:54.539Z,7.20
2023-04-22T17:18:22.546Z,6.60
2023-04-22T17:20:51.863Z,7.10
2023-04-22T17:23:19.887Z,6.50
2023-04-22T17:25:47.993Z,7.20
2023-04-22T17:28:15.965Z,7.60
2023-04-22T17:30:43.910Z,8.20
2023-04-22T17:33:11.885Z,8.00
2023-04-22T17:35:39.881Z,7.80
2023-04-22T17:38:09.221Z,7.80
2023-04-22T17:40:38.770Z,8.60
2023-04-22T17:43:06.768Z,8.70
2023-04-22T17:45:34.710Z,8.70
2023-04-22T17:48:02.809Z,9.50
2023-04-22T17:50:31.012Z,10.50
2023-04-22T17:52:59.013Z,12.40
2023-04-22T17:55:30.134Z,13.90
2023-04-22T17:58:00.010Z,14.30
2023-04-22T18:00:28.117Z,13.60
2023-04-22T18:02:56.501Z,14.10
2023-04-22T18:05:24.645Z,14.60
2023-04-22T18:07:57.593Z,15.00
2023-04-22T18:10:25.640Z,14.60
2023-04-22T18:12:55.001Z,15.50
2023-04-22T18:15:23.486Z,15.80
2023-04-22T18:17:51.837Z,16.60
2023-04-22T18:20:20.123Z,16.70
2023-04-22T18:22:49.706Z,17.40
2023-04-22T18:25:17.812Z,17.80
2023-04-22T18:27:45.779Z,18.00
2023-04-22T18:30:15.451Z,18.20
2023-04-22T18:32:43.460Z,19.00
2023-04-22T18:35:11.520Z,20.20
2023-04-22T18:37:39.466Z,20.10
2023-04-22T18:40:08.913Z,19.80
2023-04-22T18:42:37.040Z,20.90
2023-04-22T18:45:07.359Z,21.00
2023-04-22T18:47:36.666Z,21.90
2023-04-22T18:50:04.978Z,22.10
2023-04-22T18:52:33.158Z,23.70
2023-04-22T18:55:01.120Z,24.60
2023-04-22T18:57:29.233Z,25.60
2023-04-22T18:59:57.182Z,28.30
2023-04-22T19:02:25.456Z,29.60
2023-04-22T19:04:55.226Z,30.30
2023-04-22T19:07:23.271Z,34.10
2023-04-22T19:09:51.236Z,37.80
2023-04-22T19:12:19.701Z,40.00
2023-04-22T19:14:55.175Z,42.20
2023-04-22T19:17:23.137Z,45.30
2023-04-22T19:19:51.153Z,45.90
2023-04-22T19:22:20.866Z,46.90
2023-04-22T19:24:49.166Z,47.40
2023-04-22T19:27:17.340Z,46.90
2023-04-22T19:29:51.136Z,47.50
2023-04-22T19:32:19.291Z,44.10
2023-04-22T19:34:48.024Z,46.10
2023-04-22T19:37:16.047Z,45.60
2023-04-22T19:39:45.543Z,45.60
2023-04-22T19:42:13.544Z,44.20
2023-04-22T19:44:42.935Z,45.00
2023-04-22T19:47:11.334Z,44.60
2023-04-22T19:49:41.132Z,45.50
2023-04-22T19:52:11.721Z,43.20
2023-04-22T19:54:41.544Z,41.50
2023-04-22T19:57:12.828Z,42.80
2023-04-22T19:59:41.582Z,43.60
2023-04-22T20:02:10.648Z,44.30
2023-04-22T20:04:39.163Z,41.80
2023-04-22T20:07:07.889Z,43.00
2023-04-22T20:09:36.946Z,42.50
2023-04-22T20:12:06.229Z,43.10
2023-04-22T20:14:36.110Z,42.00
2023-04-22T20:17:04.272Z,42.60
2023-04-22T20:19:32.635Z,43.10
2023-04-22T20:22:01.675Z,42.00
2023-04-22T20:24:35.261Z,42.30
2023-04-22T20:27:03.838Z,43.20
2023-04-22T20:29:32.622Z,43.00
2023-04-22T20:32:04.900Z,44.20
2023-04-22T20:34:33.623Z,43.40
2023-04-22T20:37:03.038Z,43.20
2023-04-22T20:39:31.535Z,43.40
2023-04-22T20:42:00.710Z,44.50
2023-04-22T20:44:28.720Z,44.50
2023-04-22T20:46:58.240Z,43.40
2023-04-22T20:49:27.848Z,44.40
2023-04-22T20:51:56.298Z,43.00
2023-04-22T20:54:28.971Z,44.50
2023-04-22T20:57:11.820Z,45.10
2023-04-22T20:59:39.776Z,45.30
2023-04-22T21:02:09.280Z,45.80
2023-04-22T21:04:41.122Z,46.80
2023-04-22T21:07:12.302Z,48.50
2023-04-22T21:09:40.684Z,54.00
2023-04-22T21:12:10.777Z,58.20
2023-04-22T21:14:43.244Z,61.20
2023-04-22T21:17:19.208Z,62.70
2023-04-22T21:19:51.138Z,63.20
2023-04-22T21:22:22.059Z,62.00
2023-04-22T21:24:50.839Z,60.90
2023-04-22T21:27:19.786Z,60.30
2023-04-22T21:29:48.667Z,59.60
2023-04-22T21:32:17.492Z,59.40
2023-04-22T21:34:45.857Z,59.10
2023-04-22T21:37:15.461Z,59.40
2023-04-22T21:39:43.487Z,58.80
2023-04-22T21:42:11.541Z,59.20
2023-04-22T21:44:49.375Z,59.10
2023-04-22T21:47:17.394Z,59.10
2023-04-22T21:49:45.904Z,59.30
2023-04-22T21:52:15.271Z,59.30
2023-04-22T21:54:43.600Z,59.30
2023-04-22T21:57:11.922Z,58.70
2023-04-22T21:59:39.887Z,59.50
2023-04-22T22:02:07.863Z,59.60
2023-04-22T22:04:36.458Z,59.20
2023-04-22T22:07:04.518Z,59.10
2023-04-22T22:09:33.889Z,58.50
2023-04-22T22:12:02.931Z,58.30
2023-04-22T22:14:30.875Z,58.00
2023-04-22T22:16:59.035Z,58.30
2023-04-22T22:19:28.383Z,58.50
2023-04-22T22:21:56.330Z,59.10
2023-04-22T22:24:24.408Z,59.70
2023-04-22T22:26:53.733Z,60.30
2023-04-22T22:29:21.754Z,60.30
2023-04-22T22:31:49.747Z,60.20
2023-04-22T22:34:17.723Z,60.10
2023-04-22T22:36:45.737Z,60.20
2023-04-22T22:39:16.037Z,60.40
2023-04-22T22:41:44.242Z,60.60
2023-04-22T22:44:13.534Z,60.70
2023-04-22T22:46:41.806Z,61.30
2023-04-22T22:49:14.044Z,61.60
2023-04-22T22:51:42.103Z,62.00
2023-04-22T22:54:10.242Z,62.30
2023-04-22T22:56:38.607Z,62.70
2023-04-22T22:59:06.659Z,62.80
2023-04-22T23:01:36.019Z,62.70
2023-04-22T23:04:04.896Z,62.80
2023-04-22T23:06:33.029Z,62.80
2023-04-22T23:09:00.980Z,62.40
2023-04-22T23:11:28.996Z,62.30
2023-04-22T23:13:57.896Z,62.10
2023-04-22T23:16:26.279Z,62.00
2023-04-22T23:18:57.285Z,62.20
2023-04-22T23:21:25.415Z,62.00
2023-04-22T23:23:54.326Z,62.30
2023-04-22T23:26:22.759Z,63.00
2023-04-22T23:28:51.182Z,62.90
2023-04-22T23:31:20.418Z,62.90
2023-04-22T23:33:50.813Z,62.80
2023-04-22T23:36:22.442Z,62.50
2023-04-22T23:38:50.655Z,61.90
2023-04-22T23:41:20.930Z,61.40
2023-04-22T23:43:49.131Z,61.70
2023-04-22T23:46:18.665Z,62.90
2023-04-22T23:48:47.231Z,63.30
2023-04-22T23:51:16.749Z,65.00
2023-04-22T23:53:47.023Z,65.60
2023-04-22T23:56:19.972Z,65.40
2023-04-22T23:58:48.626Z,65.30
